createdAt,value
2019-04-20T00:01:37.250Z,25.18
2019-04-20T00:04:10.795Z,25.20
2019-04-20T00:06:40.650Z,25.18
2019-04-20T00:09:12.325Z,25.19
2019-04-20T00:11:51.725Z,25.15
2019-04-20T00:14:13.526Z,25.17
2019-04-20T00:16:35.988Z,25.14
2019-04-20T00:19:06.784Z,25.15
2019-04-20T00:22:00.295Z,25.16
2019-04-20T00:24:45.359Z,25.15
2019-04-20T00:27:37.113Z,25.13
2019-04-20T00:29:58.702Z,25.08
2019-04-20T00:32:25.357Z,25.09
2019-04-20T00:34:45.440Z,25.10
2019-04-20T00:37:13.291Z,25.07
2019-04-20T00:39:42.630Z,25.06
2019-04-20T00:42:14.405Z,25.07
2019-04-20T00:44:44.122Z,25.07
2019-04-20T00:47:27.502Z,25.07
2019-04-20T00:49:55.175Z,25.09
2019-04-20T00:52:29.108Z,25.09
2019-04-20T00:54:43.199Z,25.10
2019-04-20T00:57:20.392Z,25.04
2019-04-20T00:59:59.231Z,25.06
2019-04-20T01:02:28.868Z,25.03
2019-04-20T01:04:58.214Z,24.97
2019-04-20T01:07:28.937Z,24.97
2019-04-20T01:10:08.967Z,24.97
2019-04-20T01:12:40.484Z,24.95
2019-04-20T01:15:10.942Z,24.90
2019-04-20T01:17:37.898Z,24.92
2019-04-20T01:20:07.016Z,24.91
2019-04-20T01:22:40.299Z,24.91
2019-04-20T01:25:14.178Z,24.88
2019-04-20T01:27:58.259Z,24.93
2019-04-20T01:30:16.015Z,24.90
2019-04-20T01:32:53.840Z,24.02
2019-04-20T01:35:27.271Z,24.93
2019-04-20T01:37:54.187Z,24.91
2019-04-20T01:40:07.499Z,24.88
2019-04-20T01:42:36.113Z,24.88
2019-04-20T01:45:10.159Z,24.88
2019-04-20T01:47:39.751Z,24.90
2019-04-20T01:50:11.793Z,24.91
2019-04-20T01:52:47.868Z,24.86
2019-04-20T01:55:38.628Z,24.87
2019-04-20T01:58:27.400Z,24.93
2019-04-20T02:00:59.218Z,24.95
2019-04-20T02:03:43.035Z,24.96
2019-04-20T02:06:11.657Z,24.90
2019-04-20T02:08:37.842Z,24.90
2019-04-20T02:11:07.750Z,24.89
2019-04-20T02:13:42.512Z,24.90
2019-04-20T02:16:18.002Z,24.90
2019-04-20T02:18:44.166Z,24.89
2019-04-20T02:21:24.752Z,24.88
2019-04-20T02:23:45.753Z,24.87
2019-04-20T02:26:07.036Z,24.87
2019-04-20T02:29:03.309Z,24.87
2019-04-20T02:31:47.517Z,24.85
2019-04-20T02:34:15.727Z,24.83
2019-04-20T02:37:07.619Z,24.85
2019-04-20T02:39:33.025Z,24.84
2019-04-20T02:41:51.004Z,24.82
2019-04-20T02:44:27.534Z,24.79
2019-04-20T02:46:55.682Z,24.84
2019-04-20T02:49:29.966Z,24.81
2019-04-20T02:57:05.256Z,24.78
2019-04-20T02:59:54.262Z,24.78
2019-04-20T03:01:40.877Z,24.77
2019-04-20T03:03:54.589Z,24.76
2019-04-20T03:06:32.658Z,24.81
2019-04-20T03:09:17.249Z,24.76
2019-04-20T03:11:48.490Z,24.77
2019-04-20T03:14:11.118Z,24.75
2019-04-20T03:16:37.268Z,24.74
2019-04-20T03:19:04.122Z,24.73
2019-04-20T03:21:43.444Z,24.77
2019-04-20T03:24:15.882Z,24.76
2019-04-20T03:26:41.934Z,24.72
2019-04-20T03:29:51.087Z,24.72
2019-04-20T03:35:05.574Z,24.70
2019-04-20T03:37:26.697Z,24.72
2019-04-20T03:39:47.631Z,24.69
2019-04-20T03:42:06.815Z,24.66
2019-04-20T03:44:35.909Z,24.67
2019-04-20T03:47:08.835Z,24.69
2019-04-20T03:50:10.698Z,24.71
2019-04-20T03:52:51.399Z,24.70
2019-04-20T03:55:23.459Z,24.72
2019-04-20T03:58:04.070Z,24.69
2019-04-20T04:00:52.493Z,24.71
2019-04-20T04:03:41.072Z,24.73
2019-04-20T04:06:07.749Z,24.71
2019-04-20T04:08:32.229Z,24.67
2019-04-20T04:11:12.122Z,24.66
2019-04-20T04:13:23.045Z,24.64
2019-04-20T04:15:57.455Z,24.61
2019-04-20T04:18:28.085Z,24.65
2019-04-20T04:20:59.080Z,24.66
2019-04-20T04:23:38.101Z,24.61
2019-04-20T04:26:08.539Z,24.62
2019-04-20T04:28:39.708Z,24.61
2019-04-20T04:33:54.888Z,24.64
2019-04-20T04:36:05.857Z,24.64
2019-04-20T04:38:44.656Z,24.61
2019-04-20T04:41:13.983Z,24.65
2019-04-20T04:43:40.112Z,24.64
2019-04-20T04:45:51.213Z,24.64
2019-04-20T04:48:27.554Z,24.63
2019-04-20T04:50:57.378Z,24.60
2019-04-20T04:53:31.324Z,24.62
2019-04-20T04:55:56.586Z,24.62
2019-04-20T04:58:19.618Z,24.62
2019-04-20T05:00:49.160Z,24.59
2019-04-20T05:03:35.692Z,24.63
2019-04-20T05:06:14.860Z,24.62
2019-04-20T05:08:31.615Z,24.60
2019-04-20T05:10:56.096Z,24.64
2019-04-20T05:13:26.782Z,24.64
2019-04-20T05:16:08.097Z,24.60
2019-04-20T05:18:44.850Z,24.62
2019-04-20T05:21:20.771Z,24.60
2019-04-20T05:23:47.713Z,24.63
2019-04-20T05:26:36.329Z,24.62
2019-04-20T05:28:58.349Z,24.67
2019-04-20T05:31:18.503Z,24.64
2019-04-20T05:34:08.524Z,24.67
2019-04-20T05:36:40.471Z,24.69
2019-04-20T05:39:19.526Z,24.70
2019-04-20T05:41:32.699Z,24.76
2019-04-20T05:44:09.925Z,24.75
2019-04-20T05:46:40.957Z,24.78
2019-04-20T05:49:20.124Z,24.80
2019-04-20T05:51:39.480Z,24.82
2019-04-20T05:54:17.906Z,24.85
2019-04-20T05:56:57.914Z,24.87
2019-04-20T05:59:11.356Z,24.92
2019-04-20T06:01:45.274Z,24.91
2019-04-20T06:04:10.255Z,24.93
2019-04-20T06:06:44.661Z,24.98
2019-04-20T06:09:29.565Z,25.02
2019-04-20T06:11:44.537Z,25.06
2019-04-20T06:14:17.241Z,25.07
2019-04-20T06:17:20.978Z,25.12
2019-04-20T06:19:44.169Z,25.12
2019-04-20T06:22:33.753Z,25.07
2019-04-20T06:25:40.934Z,25.09
2019-04-20T06:27:52.761Z,25.13
2019-04-20T06:30:13.708Z,25.13
2019-04-20T06:33:13.099Z,25.15
2019-04-20T06:35:54.508Z,25.16
2019-04-20T06:38:27.941Z,25.17
2019-04-20T06:40:55.609Z,25.16
2019-04-20T06:43:05.030Z,25.15
2019-04-20T06:45:45.918Z,25.17
2019-04-20T06:48:11.117Z,25.17
2019-04-20T06:50:37.179Z,25.18
2019-04-20T06:53:22.068Z,25.21
2019-04-20T06:55:51.124Z,25.21
2019-04-20T06:58:29.982Z,25.20
2019-04-20T07:00:42.072Z,25.22
2019-04-20T07:03:18.426Z,25.22
2019-04-20T07:05:39.448Z,25.26
2019-04-20T07:08:30.902Z,25.25
2019-04-20T07:10:44.366Z,25.28
2019-04-20T07:13:04.695Z,25.30
2019-04-20T07:15:40.198Z,25.31
2019-04-20T07:18:17.148Z,25.29
2019-04-20T07:21:12.793Z,25.30
2019-04-20T07:23:43.624Z,25.31
2019-04-20T07:26:16.998Z,25.30
2019-04-20T07:28:51.227Z,25.33
2019-04-20T07:31:06.805Z,25.32
2019-04-20T07:33:39.406Z,25.36
2019-04-20T07:36:15.419Z,25.35
2019-04-20T07:38:40.332Z,25.39
2019-04-20T07:41:17.411Z,25.40
2019-04-20T07:43:51.157Z,25.40
2019-04-20T07:46:12.017Z,25.37
2019-04-20T07:48:36.653Z,25.46
2019-04-20T07:50:59.221Z,25.41
2019-04-20T07:53:34.398Z,25.46
2019-04-20T07:56:04.682Z,25.51
2019-04-20T07:58:28.518Z,25.45
2019-04-20T08:01:23.749Z,25.48
2019-04-20T08:04:07.820Z,25.44
2019-04-20T08:06:28.892Z,25.46
2019-04-20T08:09:05.306Z,25.46
2019-04-20T08:11:41.166Z,25.48
2019-04-20T08:14:12.983Z,25.48
2019-04-20T08:16:46.387Z,25.49
2019-04-20T08:19:04.159Z,25.48
2019-04-20T08:21:43.735Z,25.46
2019-04-20T08:24:07.261Z,25.55
2019-04-20T08:26:28.304Z,25.53
2019-04-20T08:28:59.725Z,25.52
2019-04-20T08:32:08.506Z,25.52
2019-04-20T08:34:42.051Z,25.47
2019-04-20T08:37:08.443Z,25.51
2019-04-20T08:39:55.870Z,25.51
2019-04-20T08:42:06.273Z,25.53
2019-04-20T08:47:24.223Z,25.56
2019-04-20T08:49:45.474Z,25.58
2019-04-20T08:52:24.223Z,25.58
2019-04-20T08:54:34.526Z,25.59
2019-04-20T08:56:54.778Z,25.61
2019-04-20T08:59:16.878Z,25.66
2019-04-20T09:01:45.006Z,25.63
2019-04-20T09:04:20.202Z,25.62
2019-04-20T09:06:58.394Z,25.67
2019-04-20T09:12:03.254Z,25.71
2019-04-20T09:14:20.912Z,25.72
2019-04-20T09:16:59.177Z,25.72
2019-04-20T09:19:29.888Z,25.74
2019-04-20T09:22:12.156Z,25.80
2019-04-20T09:24:52.892Z,25.78
2019-04-20T09:27:08.740Z,25.84
2019-04-20T09:29:37.150Z,25.80
2019-04-20T09:32:23.177Z,25.80
2019-04-20T09:34:56.999Z,25.84
2019-04-20T09:37:43.082Z,25.88
2019-04-20T09:40:28.195Z,25.86
2019-04-20T09:42:51.242Z,25.88
2019-04-20T09:45:32.990Z,25.90
2019-04-20T09:47:56.339Z,25.86
2019-04-20T09:50:44.996Z,25.87
2019-04-20T09:53:10.209Z,25.88
2019-04-20T09:55:33.787Z,25.87
2019-04-20T09:58:07.257Z,25.89
2019-04-20T10:00:43.798Z,25.89
2019-04-20T10:02:54.933Z,25.91
2019-04-20T10:05:23.282Z,25.92
2019-04-20T10:07:56.957Z,25.94
2019-04-20T10:10:31.319Z,25.98
2019-04-20T10:12:52.200Z,25.98
2019-04-20T10:15:23.497Z,25.96
2019-04-20T10:17:50.369Z,25.94
2019-04-20T10:20:24.420Z,25.96
2019-04-20T10:22:48.840Z,25.98
2019-04-20T10:25:18.217Z,25.99
2019-04-20T10:27:47.474Z,25.97
2019-04-20T10:30:16.696Z,26.00
2019-04-20T10:32:48.963Z,25.98
2019-04-20T10:35:16.847Z,26.01
2019-04-20T10:37:49.696Z,26.03
2019-04-20T10:40:32.638Z,25.99
2019-04-20T10:42:48.088Z,26.05
2019-04-20T10:45:17.034Z,26.01
2019-04-20T10:47:45.373Z,26.02
2019-04-20T10:50:13.532Z,26.05
2019-04-20T10:52:41.814Z,26.04
2019-04-20T10:55:10.457Z,26.04
2019-04-20T10:57:39.677Z,26.08
2019-04-20T11:00:08.063Z,26.12
2019-04-20T11:02:37.192Z,26.07
2019-04-20T11:05:06.550Z,26.11
2019-04-20T11:07:34.815Z,26.11
2019-04-20T11:10:13.424Z,26.09
2019-04-20T11:12:32.796Z,26.08
2019-04-20T11:15:00.919Z,26.06
2019-04-20T11:17:30.527Z,26.08
2019-04-20T11:19:59.185Z,26.08
2019-04-20T11:22:28.331Z,26.11
2019-04-20T11:24:56.592Z,26.13
2019-04-20T11:27:25.845Z,26.18
2019-04-20T11:29:54.140Z,26.21
2019-04-20T11:32:22.285Z,26.22
2019-04-20T11:34:51.267Z,26.21
2019-04-20T11:37:19.431Z,26.22
2019-04-20T11:39:47.576Z,26.23
2019-04-20T11:42:15.705Z,26.23
2019-04-20T11:44:44.757Z,26.22
2019-04-20T11:47:13.018Z,26.22
2019-04-20T11:49:41.649Z,26.29
2019-04-20T11:52:09.867Z,26.32
2019-04-20T11:54:38.008Z,26.32
2019-04-20T11:57:07.078Z,26.37
2019-04-20T11:59:35.298Z,26.41
2019-04-20T12:02:25.321Z,26.40
2019-04-20T12:05:06.326Z,26.41
2019-04-20T12:07:20.751Z,26.35
2019-04-20T12:09:49.417Z,26.36
2019-04-20T12:12:28.989Z,26.38
2019-04-20T12:14:48.500Z,26.36
2019-04-20T12:17:17.647Z,26.35
2019-04-20T12:19:46.005Z,26.37
2019-04-20T12:22:14.257Z,26.41
2019-04-20T12:24:42.428Z,26.37
2019-04-20T12:27:10.608Z,26.38
2019-04-20T12:29:38.748Z,26.41
2019-04-20T12:32:08.599Z,26.37
2019-04-20T12:34:37.134Z,26.42
2019-04-20T12:37:05.275Z,26.42
2019-04-20T12:39:33.382Z,26.43
2019-04-20T12:42:05.842Z,26.41
2019-04-20T12:44:32.134Z,26.44
2019-04-20T12:47:01.518Z,26.45
2019-04-20T12:49:29.697Z,26.47
2019-04-20T12:52:01.487Z,26.50
2019-04-20T12:54:28.961Z,26.50
2019-04-20T12:56:58.480Z,26.47
2019-04-20T12:59:27.537Z,26.45
2019-04-20T13:01:57.365Z,26.49
2019-04-20T13:04:26.838Z,26.46
2019-04-20T13:06:55.408Z,26.47
2019-04-20T13:09:23.745Z,26.48
2019-04-20T13:12:12.217Z,26.49
2019-04-20T13:15:00.323Z,26.50
2019-04-20T13:17:28.541Z,26.49
2019-04-20T13:19:57.455Z,26.55
2019-04-20T13:22:25.692Z,26.54
2019-04-20T13:24:54.977Z,26.52
2019-04-20T13:27:23.340Z,26.55
2019-04-20T13:29:53.027Z,26.56
2019-04-20T13:32:21.376Z,26.56
2019-04-20T13:34:49.968Z,26.52
2019-04-20T13:37:18.212Z,26.49
2019-04-20T13:39:46.861Z,26.52
2019-04-20T13:42:21.218Z,26.55
2019-04-20T13:44:45.251Z,26.57
2019-04-20T13:47:14.632Z,26.51
2019-04-20T13:49:43.131Z,26.57
2019-04-20T13:52:11.343Z,26.53
2019-04-20T13:54:40.052Z,26.55
2019-04-20T13:57:10.157Z,26.59
2019-04-20T13:59:42.371Z,26.62
2019-04-20T14:02:38.647Z,26.63
2019-04-20T14:05:06.966Z,26.63
2019-04-20T14:07:35.641Z,26.60
2019-04-20T14:10:05.741Z,26.09
2019-04-20T14:12:37.558Z,26.58
2019-04-20T14:15:05.008Z,26.58
2019-04-20T14:17:33.219Z,26.63
2019-04-20T14:20:07.447Z,26.58
2019-04-20T14:22:31.351Z,26.60
2019-04-20T14:25:00.623Z,26.63
2019-04-20T14:27:28.999Z,26.67
2019-04-20T14:29:57.190Z,26.61
2019-04-20T14:32:25.340Z,26.67
2019-04-20T14:34:53.532Z,26.69
2019-04-20T14:37:22.688Z,26.69
2019-04-20T14:39:52.235Z,26.68
2019-04-20T14:42:33.144Z,26.65
2019-04-20T14:44:50.487Z,26.64
2019-04-20T14:47:19.329Z,26.68
2019-04-20T14:49:48.591Z,26.72
2019-04-20T14:52:17.611Z,26.66
2019-04-20T14:54:46.068Z,26.68
2019-04-20T14:57:14.264Z,26.72
2019-04-20T14:59:47.416Z,26.74
2019-04-20T15:02:17.819Z,26.74
2019-04-20T15:04:47.330Z,26.66
2019-04-20T15:07:15.556Z,26.67
2019-04-20T15:09:44.683Z,26.66
2019-04-20T15:12:13.121Z,26.69
2019-04-20T15:14:42.589Z,26.69
2019-04-20T15:17:12.625Z,26.73
2019-04-20T15:20:01.530Z,26.76
2019-04-20T15:22:31.666Z,26.73
2019-04-20T15:25:00.079Z,26.70
2019-04-20T15:27:28.311Z,26.71
2019-04-20T15:29:56.499Z,26.76
2019-04-20T15:32:25.007Z,26.81
2019-04-20T15:34:53.245Z,26.77
2019-04-20T15:37:23.259Z,26.77
2019-04-20T15:39:51.226Z,26.84
2019-04-20T15:42:19.447Z,26.82
2019-04-20T15:44:47.710Z,26.81
2019-04-20T15:47:17.277Z,26.85
2019-04-20T15:49:46.194Z,26.90
2019-04-20T15:52:19.960Z,26.92
2019-04-20T15:54:45.547Z,26.97
2019-04-20T15:57:22.967Z,27.17
2019-04-20T15:59:46.813Z,27.39
2019-04-20T16:02:21.058Z,27.82
2019-04-20T16:05:00.600Z,28.84
2019-04-20T16:07:32.960Z,30.28
2019-04-20T16:09:59.132Z,31.02
2019-04-20T16:12:27.329Z,31.24
2019-04-20T16:14:55.591Z,31.58
2019-04-20T16:17:31.120Z,31.62
2019-04-20T16:20:01.404Z,31.50
2019-04-20T16:22:25.862Z,31.19
2019-04-20T16:24:59.251Z,30.56
2019-04-20T16:27:53.833Z,29.79
2019-04-20T16:30:23.287Z,28.06
2019-04-20T16:32:52.525Z,27.36
2019-04-20T16:35:20.776Z,27.13
2019-04-20T16:37:49.003Z,26.53
2019-04-20T16:40:17.696Z,27.04
2019-04-20T16:42:46.114Z,26.95
2019-04-20T16:45:15.065Z,26.91
2019-04-20T16:47:44.177Z,26.93
2019-04-20T16:50:13.087Z,26.91
2019-04-20T16:52:41.386Z,26.88
2019-04-20T16:55:11.283Z,26.85
2019-04-20T16:57:39.753Z,26.84
2019-04-20T17:00:09.332Z,26.77
2019-04-20T17:02:38.222Z,26.79
2019-04-20T17:05:07.261Z,26.75
2019-04-20T17:07:44.768Z,26.74
2019-04-20T17:10:13.791Z,26.72
2019-04-20T17:12:42.096Z,26.70
2019-04-20T17:15:11.443Z,26.67
2019-04-20T17:17:39.988Z,26.67
2019-04-20T17:20:09.292Z,26.64
2019-04-20T17:22:37.548Z,26.61
2019-04-20T17:25:05.957Z,26.59
2019-04-20T17:28:06.892Z,26.59
2019-04-20T17:30:54.929Z,26.53
2019-04-20T17:33:29.943Z,26.54
2019-04-20T17:36:08.420Z,26.52
2019-04-20T17:38:34.760Z,26.52
2019-04-20T17:41:12.656Z,26.51
2019-04-20T17:43:35.125Z,26.50
2019-04-20T17:46:06.958Z,26.47
2019-04-20T17:48:38.677Z,26.45
2019-04-20T17:51:17.832Z,26.48
2019-04-20T17:53:52.774Z,26.45
2019-04-20T17:56:15.565Z,26.41
2019-04-20T17:58:43.961Z,26.42
2019-04-20T18:01:41.024Z,26.39
2019-04-20T18:04:32.189Z,26.36
2019-04-20T18:06:43.856Z,26.33
2019-04-20T18:09:17.920Z,26.35
2019-04-20T18:11:37.307Z,26.36
2019-04-20T18:14:16.928Z,26.34
2019-04-20T18:16:50.803Z,26.32
2019-04-20T18:19:17.477Z,26.32
2019-04-20T18:21:43.597Z,26.26
2019-04-20T18:24:25.687Z,26.29
2019-04-20T18:26:59.653Z,26.28
2019-04-20T18:29:32.585Z,26.29
2019-04-20T18:31:55.675Z,26.28
2019-04-20T18:34:34.396Z,26.28
2019-04-20T18:37:07.491Z,26.30
2019-04-20T18:39:37.421Z,26.29
2019-04-20T18:42:10.130Z,26.25
2019-04-20T18:44:55.797Z,26.24
2019-04-20T18:47:23.631Z,26.20
2019-04-20T18:49:41.932Z,26.18
2019-04-20T18:52:01.962Z,26.16
2019-04-20T18:54:34.708Z,26.16
2019-04-20T18:57:01.676Z,26.19
2019-04-20T18:59:39.612Z,26.17
2019-04-20T19:01:59.692Z,26.18
2019-04-20T19:04:28.055Z,26.12
2019-04-20T19:06:57.354Z,26.09
2019-04-20T19:09:29.882Z,26.05
2019-04-20T19:12:00.831Z,26.07
2019-04-20T19:14:39.950Z,26.13
2019-04-20T19:17:23.022Z,26.12
2019-04-20T19:19:54.742Z,26.12
2019-04-20T19:22:21.733Z,26.12
2019-04-20T19:24:50.027Z,26.13
2019-04-20T19:27:19.832Z,26.13
2019-04-20T19:29:56.320Z,26.15
2019-04-20T19:32:34.419Z,26.17
2019-04-20T19:34:59.618Z,26.19
2019-04-20T19:37:27.436Z,26.18
2019-04-20T19:40:02.805Z,26.16
2019-04-20T19:42:33.355Z,26.13
2019-04-20T19:45:02.027Z,26.13
2019-04-20T19:47:36.857Z,26.14
2019-04-20T19:50:11.225Z,26.13
2019-04-20T19:52:43.271Z,26.10
2019-04-20T19:55:06.382Z,26.11
2019-04-20T19:57:41.266Z,26.06
2019-04-20T19:59:51.898Z,26.13
2019-04-20T20:02:17.935Z,26.14
2019-04-20T20:04:50.775Z,26.08
2019-04-20T20:07:26.342Z,26.10
2019-04-20T20:09:53.028Z,26.08
2019-04-20T20:12:19.301Z,26.07
2019-04-20T20:14:51.262Z,26.06
2019-04-20T20:17:37.017Z,26.10
2019-04-20T20:20:16.385Z,26.09
2019-04-20T20:22:29.427Z,26.07
2019-04-20T20:24:49.396Z,26.02
2019-04-20T20:27:24.224Z,26.02
2019-04-20T20:29:59.721Z,26.02
2019-04-20T20:32:31.170Z,26.04
2019-04-20T20:34:56.292Z,26.04
2019-04-20T20:37:27.206Z,26.02
2019-04-20T20:39:59.709Z,26.02
2019-04-20T20:42:30.902Z,26.03
2019-04-20T20:44:55.673Z,26.03
2019-04-20T20:47:41.273Z,25.98
2019-04-20T20:50:08.675Z,25.97
2019-04-20T20:52:32.392Z,25.98
2019-04-20T20:54:54.140Z,25.97
2019-04-20T20:57:20.635Z,25.95
2019-04-20T20:59:53.406Z,25.93
2019-04-20T21:02:23.180Z,25.90
2019-04-20T21:04:45.817Z,25.90
2019-04-20T21:07:14.049Z,25.90
2019-04-20T21:09:42.216Z,25.94
2019-04-20T21:12:14.952Z,25.88
2019-04-20T21:14:42.146Z,25.89
2019-04-20T21:17:15.985Z,25.91
2019-04-20T21:19:58.351Z,25.87
2019-04-20T21:22:18.580Z,25.85
2019-04-20T21:24:42.094Z,25.84
2019-04-20T21:27:14.926Z,25.88
2019-04-20T21:29:44.390Z,25.84
2019-04-20T21:32:14.353Z,25.86
2019-04-20T21:34:43.269Z,25.88
2019-04-20T21:37:12.704Z,25.87
2019-04-20T21:39:46.581Z,25.86
2019-04-20T21:42:15.693Z,25.86
2019-04-20T21:44:42.927Z,25.83
2019-04-20T21:47:09.194Z,25.82
2019-04-20T21:49:49.394Z,25.84
2019-04-20T21:52:20.833Z,25.84
2019-04-20T21:54:40.172Z,25.78
2019-04-20T21:57:11.164Z,25.78
2019-04-20T21:59:43.257Z,25.81
2019-04-20T22:02:17.135Z,25.81
2019-04-20T22:04:37.902Z,25.78
2019-04-20T22:07:06.073Z,25.78
2019-04-20T22:09:40.213Z,25.81
2019-04-20T22:12:05.606Z,25.75
2019-04-20T22:14:34.365Z,25.75
2019-04-20T22:17:05.201Z,25.73
2019-04-20T22:19:41.881Z,25.70
2019-04-20T22:22:16.170Z,25.72
2019-04-20T22:24:50.488Z,25.71
2019-04-20T22:27:13.072Z,25.72
2019-04-20T22:29:34.263Z,25.71
2019-04-20T22:32:07.398Z,25.69
2019-04-20T22:34:33.717Z,25.68
2019-04-20T22:37:02.303Z,25.70
2019-04-20T22:39:39.829Z,25.64
2019-04-20T22:42:08.746Z,25.68
2019-04-20T22:44:34.803Z,25.67
2019-04-20T22:47:05.492Z,25.67
2019-04-20T22:49:50.145Z,25.64
2019-04-20T22:52:18.120Z,25.63
2019-04-20T22:54:48.894Z,25.66
2019-04-20T22:57:13.006Z,25.61
2019-04-20T22:59:43.279Z,25.60
2019-04-20T23:02:04.635Z,25.60
2019-04-20T23:04:33.045Z,25.63
2019-04-20T23:07:01.353Z,25.61
2019-04-20T23:09:34.172Z,25.60
2019-04-20T23:12:03.779Z,25.58
2019-04-20T23:14:29.239Z,25.61
2019-04-20T23:16:57.614Z,25.56
2019-04-20T23:19:34.536Z,25.58
2019-04-20T23:22:01.296Z,25.55
2019-04-20T23:24:27.035Z,25.57
2019-04-20T23:26:55.363Z,25.57
2019-04-20T23:29:27.216Z,25.55
2019-04-20T23:32:00.743Z,25.53
2019-04-20T23:34:26.612Z,25.51
2019-04-20T23:36:53.048Z,25.48
2019-04-20T23:39:24.689Z,25.49
2019-04-20T23:41:57.117Z,25.48
2019-04-20T23:44:52.070Z,25.50
2019-04-20T23:47:27.900Z,25.47
2019-04-20T23:50:15.172Z,25.45
2019-04-20T23:52:48.788Z,25.49
2019-04-20T23:55:04.967Z,25.44
2019-04-20T23:57:29.392Z,25.50
2019-04-20T23:59:58.173Z,25.46
